sensor_id;sensor_type;location;lat;lon;timestamp;temperature;humidity
50758;DHT22;36732;47.980;11.652;2023-04-01T00:00:57;12.10;59.20
50758;DHT22;36732;47.980;11.652;2023-04-01T00:03:24;12.00;59.20
50758;DHT22;36732;47.980;11.652;2023-04-01T00:05:50;12.00;59.40
50758;DHT22;36732;47.980;11.652;2023-04-01T00:08:17;12.00;59.50
50758;DHT22;36732;47.980;11.652;2023-04-01T00:10:43;12.00;59.70
50758;DHT22;36732;47.980;11.652;2023-04-01T00:13:09;12.00;59.80
50758;DHT22;36732;47.980;11.652;2023-04-01T00:15:35;12.00;59.80
50758;DHT22;36732;47.980;11.652;2023-04-01T00:18:01;12.00;59.90
50758;DHT22;36732;47.980;11.652;2023-04-01T00:20:27;12.00;60.00
50758;DHT22;36732;47.980;11.652;2023-04-01T00:22:53;12.00;59.90
50758;DHT22;36732;47.980;11.652;2023-04-01T00:25:20;11.90;59.90
50758;DHT22;36732;47.980;11.652;2023-04-01T00:27:46;11.90;59.80
50758;DHT22;36732;47.980;11.652;2023-04-01T00:30:12;11.90;59.90
50758;DHT22;36732;47.980;11.652;2023-04-01T00:32:38;11.90;60.00
50758;DHT22;36732;47.980;11.652;2023-04-01T00:35:04;11.90;60.10
50758;DHT22;36732;47.980;11.652;2023-04-01T00:37:30;11.90;60.10
50758;DHT22;36732;47.980;11.652;2023-04-01T00:39:56;11.90;60.20
50758;DHT22;36732;47.980;11.652;2023-04-01T00:42:22;11.90;60.30
50758;DHT22;36732;47.980;11.652;2023-04-01T00:44:51;11.90;60.30
50758;DHT22;36732;47.980;11.652;2023-04-01T00:47:18;11.90;60.20
50758;DHT22;36732;47.980;11.652;2023-04-01T00:49:46;11.90;60.10
50758;DHT22;36732;47.980;11.652;2023-04-01T00:52:21;11.80;60.20
50758;DHT22;36732;47.980;11.652;2023-04-01T00:54:50;11.80;60.20
50758;DHT22;36732;47.980;11.652;2023-04-01T00:57:39;11.80;60.20
50758;DHT22;36732;47.980;11.652;2023-04-01T01:00:10;11.80;60.40
50758;DHT22;36732;47.980;11.652;2023-04-01T01:02:44;11.80;60.30
50758;DHT22;36732;47.980;11.652;2023-04-01T01:05:14;11.80;60.20
50758;DHT22;36732;47.980;11.652;2023-04-01T01:08:18;11.80;60.20
50758;DHT22;36732;47.980;11.652;2023-04-01T01:11:05;11.80;60.40
50758;DHT22;36732;47.980;11.652;2023-04-01T01:13:40;11.80;60.30
50758;DHT22;36732;47.980;11.652;2023-04-01T01:16:21;11.80;60.40
50758;DHT22;36732;47.980;11.652;2023-04-01T01:27:16;11.80;60.40
50758;DHT22;36732;47.980;11.652;2023-04-01T01:35:49;11.80;61.00
50758;DHT22;36732;47.980;11.652;2023-04-01T01:38:23;11.70;60.30
50758;DHT22;36732;47.980;11.652;2023-04-01T01:40:52;11.80;60.40
50758;DHT22;36732;47.980;11.652;2023-04-01T01:43:25;11.70;60.30
50758;DHT22;36732;47.980;11.652;2023-04-01T01:45:58;11.80;60.50
50758;DHT22;36732;47.980;11.652;2023-04-01T01:48:27;11.80;60.40
50758;DHT22;36732;47.980;11.652;2023-04-01T01:50:55;11.70;60.50
50758;DHT22;36732;47.980;11.652;2023-04-01T01:53:20;11.70;60.40
50758;DHT22;36732;47.980;11.652;2023-04-01T01:55:47;11.70;61.20
50758;DHT22;36732;47.980;11.652;2023-04-01T01:58:30;11.70;60.50
50758;DHT22;36732;47.980;11.652;2023-04-01T02:01:13;11.70;60.50
50758;DHT22;36732;47.980;11.652;2023-04-01T02:03:42;11.70;60.50
50758;DHT22;36732;47.980;11.652;2023-04-01T02:06:12;11.70;60.50
50758;DHT22;36732;47.980;11.652;2023-04-01T02:08:42;11.70;60.40
50758;DHT22;36732;47.980;11.652;2023-04-01T02:11:13;11.80;60.50
50758;DHT22;36732;47.980;11.652;2023-04-01T02:16:58;11.70;60.30
50758;DHT22;36732;47.980;11.652;2023-04-01T02:19:43;11.70;60.20
50758;DHT22;36732;47.980;11.652;2023-04-01T02:22:15;11.70;60.40
50758;DHT22;36732;47.980;11.652;2023-04-01T02:24:43;11.70;60.20
50758;DHT22;36732;47.980;11.652;2023-04-01T02:27:11;11.70;60.10
50758;DHT22;36732;47.980;11.652;2023-04-01T02:29:38;11.70;60.00
50758;DHT22;36732;47.980;11.652;2023-04-01T02:32:04;11.70;60.00
50758;DHT22;36732;47.980;11.652;2023-04-01T02:34:32;11.70;60.00
50758;DHT22;36732;47.980;11.652;2023-04-01T02:36:58;11.70;60.00
50758;DHT22;36732;47.980;11.652;2023-04-01T02:39:24;11.70;60.00
50758;DHT22;36732;47.980;11.652;2023-04-01T02:41:51;11.70;60.00
50758;DHT22;36732;47.980;11.652;2023-04-01T02:44:17;11.70;60.00
50758;DHT22;36732;47.980;11.652;2023-04-01T02:46:43;11.70;60.00
50758;DHT22;36732;47.980;11.652;2023-04-01T02:49:09;11.70;59.90
50758;DHT22;36732;47.980;11.652;2023-04-01T02:51:35;11.70;59.80
50758;DHT22;36732;47.980;11.652;2023-04-01T02:54:01;11.70;59.90
50758;DHT22;36732;47.980;11.652;2023-04-01T02:56:27;11.70;59.70
50758;DHT22;36732;47.980;11.652;2023-04-01T02:58:53;11.70;59.60
50758;DHT22;36732;47.980;11.652;2023-04-01T03:01:20;11.70;59.70
50758;DHT22;36732;47.980;11.652;2023-04-01T03:03:46;11.70;59.40
50758;DHT22;36732;47.980;11.652;2023-04-01T03:06:14;11.70;59.50
50758;DHT22;36732;47.980;11.652;2023-04-01T03:08:41;11.70;59.40
50758;DHT22;36732;47.980;11.652;2023-04-01T03:11:07;11.70;59.40
50758;DHT22;36732;47.980;11.652;2023-04-01T03:13:33;11.60;59.30
50758;DHT22;36732;47.980;11.652;2023-04-01T03:15:58;11.60;59.40
50758;DHT22;36732;47.980;11.652;2023-04-01T03:18:24;11.60;59.40
50758;DHT22;36732;47.980;11.652;2023-04-01T03:20:50;11.70;59.40
50758;DHT22;36732;47.980;11.652;2023-04-01T03:23:16;11.60;59.10
50758;DHT22;36732;47.980;11.652;2023-04-01T03:25:44;11.60;59.30
50758;DHT22;36732;47.980;11.652;2023-04-01T03:28:10;11.60;59.10
50758;DHT22;36732;47.980;11.652;2023-04-01T03:30:37;11.60;59.10
50758;DHT22;36732;47.980;11.652;2023-04-01T03:33:03;11.70;59.10
50758;DHT22;36732;47.980;11.652;2023-04-01T03:35:29;11.60;59.10
50758;DHT22;36732;47.980;11.652;2023-04-01T03:37:55;11.60;59.10
50758;DHT22;36732;47.980;11.652;2023-04-01T03:40:21;11.60;59.10
50758;DHT22;36732;47.980;11.652;2023-04-01T03:42:47;11.60;59.10
50758;DHT22;36732;47.980;11.652;2023-04-01T03:45:13;11.60;59.00
50758;DHT22;36732;47.980;11.652;2023-04-01T03:47:39;11.60;59.00
50758;DHT22;36732;47.980;11.652;2023-04-01T03:50:08;11.60;59.00
50758;DHT22;36732;47.980;11.652;2023-04-01T03:52:35;11.60;59.10
50758;DHT22;36732;47.980;11.652;2023-04-01T03:55:01;11.60;59.20
50758;DHT22;36732;47.980;11.652;2023-04-01T03:57:27;11.60;59.00
50758;DHT22;36732;47.980;11.652;2023-04-01T03:59:52;11.60;59.20
50758;DHT22;36732;47.980;11.652;2023-04-01T04:02:19;11.60;59.10
50758;DHT22;36732;47.980;11.652;2023-04-01T04:04:45;11.60;59.10
50758;DHT22;36732;47.980;11.652;2023-04-01T04:07:12;11.50;58.90
50758;DHT22;36732;47.980;11.652;2023-04-01T04:09:38;11.50;59.00
50758;DHT22;36732;47.980;11.652;2023-04-01T04:12:03;11.60;58.90
50758;DHT22;36732;47.980;11.652;2023-04-01T04:14:31;11.50;59.00
50758;DHT22;36732;47.980;11.652;2023-04-01T04:16:57;11.50;58.90
50758;DHT22;36732;47.980;11.652;2023-04-01T04:19:23;11.50;58.90
50758;DHT22;36732;47.980;11.652;2023-04-01T04:21:48;11.50;58.80
50758;DHT22;36732;47.980;11.652;2023-04-01T04:24:14;11.50;59.00
50758;DHT22;36732;47.980;11.652;2023-04-01T04:26:40;11.50;59.00
50758;DHT22;36732;47.980;11.652;2023-04-01T04:29:06;11.50;59.00
50758;DHT22;36732;47.980;11.652;2023-04-01T04:31:32;11.50;59.60
50758;DHT22;36732;47.980;11.652;2023-04-01T04:33:59;11.50;59.10
50758;DHT22;36732;47.980;11.652;2023-04-01T04:36:26;11.40;59.00
50758;DHT22;36732;47.980;11.652;2023-04-01T04:38:52;11.50;59.10
50758;DHT22;36732;47.980;11.652;2023-04-01T04:41:19;11.40;59.10
50758;DHT22;36732;47.980;11.652;2023-04-01T04:43:54;11.50;59.10
50758;DHT22;36732;47.980;11.652;2023-04-01T04:46:21;11.40;58.90
50758;DHT22;36732;47.980;11.652;2023-04-01T04:48:47;11.40;59.10
50758;DHT22;36732;47.980;11.652;2023-04-01T04:51:15;11.40;59.10
50758;DHT22;36732;47.980;11.652;2023-04-01T04:53:42;11.50;59.30
50758;DHT22;36732;47.980;11.652;2023-04-01T04:56:08;11.50;59.20
50758;DHT22;36732;47.980;11.652;2023-04-01T04:58:34;11.50;59.10
50758;DHT22;36732;47.980;11.652;2023-04-01T05:01:06;11.50;59.10
50758;DHT22;36732;47.980;11.652;2023-04-01T05:03:33;11.50;58.90
50758;DHT22;36732;47.980;11.652;2023-04-01T05:05:59;11.40;59.20
50758;DHT22;36732;47.980;11.652;2023-04-01T05:08:24;11.50;59.20
50758;DHT22;36732;47.980;11.652;2023-04-01T05:10:50;11.40;59.00
50758;DHT22;36732;47.980;11.652;2023-04-01T05:13:16;11.50;58.90
50758;DHT22;36732;47.980;11.652;2023-04-01T05:15:41;11.40;58.90
50758;DHT22;36732;47.980;11.652;2023-04-01T05:18:07;11.40;58.90
50758;DHT22;36732;47.980;11.652;2023-04-01T05:20:33;11.40;58.90
50758;DHT22;36732;47.980;11.652;2023-04-01T05:22:59;11.40;58.90
50758;DHT22;36732;47.980;11.652;2023-04-01T05:25:25;11.50;59.00
50758;DHT22;36732;47.980;11.652;2023-04-01T05:27:51;11.40;59.00
50758;DHT22;36732;47.980;11.652;2023-04-01T05:30:17;11.40;58.90
50758;DHT22;36732;47.980;11.652;2023-04-01T05:32:43;11.40;58.80
50758;DHT22;36732;47.980;11.652;2023-04-01T05:35:10;11.40;58.90
50758;DHT22;36732;47.980;11.652;2023-04-01T05:37:36;11.50;58.80
50758;DHT22;36732;47.980;11.652;2023-04-01T05:40:03;11.40;58.80
50758;DHT22;36732;47.980;11.652;2023-04-01T05:42:29;11.50;58.90
50758;DHT22;36732;47.980;11.652;2023-04-01T05:44:55;11.40;58.90
50758;DHT22;36732;47.980;11.652;2023-04-01T05:47:22;11.50;58.80
50758;DHT22;36732;47.980;11.652;2023-04-01T05:49:47;11.40;58.60
50758;DHT22;36732;47.980;11.652;2023-04-01T05:52:13;11.50;58.50
50758;DHT22;36732;47.980;11.652;2023-04-01T05:54:39;11.50;58.60
50758;DHT22;36732;47.980;11.652;2023-04-01T05:57:05;11.50;58.50
50758;DHT22;36732;47.980;11.652;2023-04-01T05:59:31;11.50;58.50
50758;DHT22;36732;47.980;11.652;2023-04-01T06:01:57;11.50;58.60
50758;DHT22;36732;47.980;11.652;2023-04-01T06:04:23;11.50;58.60
50758;DHT22;36732;47.980;11.652;2023-04-01T06:06:49;11.50;58.70
50758;DHT22;36732;47.980;11.652;2023-04-01T06:09:18;11.50;58.60
50758;DHT22;36732;47.980;11.652;2023-04-01T06:15:13;11.50;58.60
50758;DHT22;36732;47.980;11.652;2023-04-01T06:23:35;11.50;58.50
50758;DHT22;36732;47.980;11.652;2023-04-01T06:26:16;11.50;58.60
50758;DHT22;36732;47.980;11.652;2023-04-01T06:40:40;11.60;58.40
50758;DHT22;36732;47.980;11.652;2023-04-01T06:52:21;11.60;58.50
50758;DHT22;36732;47.980;11.652;2023-04-01T06:55:34;11.60;58.50
50758;DHT22;36732;47.980;11.652;2023-04-01T06:58:04;11.60;58.40
50758;DHT22;36732;47.980;11.652;2023-04-01T07:00:38;11.60;58.60
50758;DHT22;36732;47.980;11.652;2023-04-01T07:06:01;11.60;58.10
50758;DHT22;36732;47.980;11.652;2023-04-01T07:08:29;11.60;58.50
50758;DHT22;36732;47.980;11.652;2023-04-01T07:11:04;11.60;58.60
50758;DHT22;36732;47.980;11.652;2023-04-01T07:13:41;11.60;58.40
50758;DHT22;36732;47.980;11.652;2023-04-01T07:17:04;11.60;58.40
50758;DHT22;36732;47.980;11.652;2023-04-01T07:20:26;11.60;58.30
50758;DHT22;36732;47.980;11.652;2023-04-01T07:22:44;11.60;58.50
50758;DHT22;36732;47.980;11.652;2023-04-01T07:25:18;11.70;58.30
50758;DHT22;36732;47.980;11.652;2023-04-01T07:27:46;11.60;58.40
50758;DHT22;36732;47.980;11.652;2023-04-01T07:30:19;11.60;58.40
50758;DHT22;36732;47.980;11.652;2023-04-01T07:33:11;11.60;58.30
50758;DHT22;36732;47.980;11.652;2023-04-01T07:36:13;11.60;58.00
50758;DHT22;36732;47.980;11.652;2023-04-01T07:41:48;11.70;58.20
50758;DHT22;36732;47.980;11.652;2023-04-01T07:50:17;11.70;58.30
50758;DHT22;36732;47.980;11.652;2023-04-01T07:53:23;11.70;58.10
50758;DHT22;36732;47.980;11.652;2023-04-01T07:56:15;11.70;58.10
50758;DHT22;36732;47.980;11.652;2023-04-01T07:59:09;11.70;58.00
50758;DHT22;36732;47.980;11.652;2023-04-01T08:02:00;11.70;57.70
50758;DHT22;36732;47.980;11.652;2023-04-01T08:07:30;11.70;57.80
50758;DHT22;36732;47.980;11.652;2023-04-01T08:18:28;11.80;58.10
50758;DHT22;36732;47.980;11.652;2023-04-01T08:21:01;11.70;57.90
50758;DHT22;36732;47.980;11.652;2023-04-01T08:23:41;11.80;58.40
50758;DHT22;36732;47.980;11.652;2023-04-01T08:29:18;11.80;58.60
50758;DHT22;36732;47.980;11.652;2023-04-01T08:32:15;11.80;58.40
50758;DHT22;36732;47.980;11.652;2023-04-01T08:34:50;11.80;58.60
50758;DHT22;36732;47.980;11.652;2023-04-01T08:37:30;11.80;58.60
50758;DHT22;36732;47.980;11.652;2023-04-01T08:40:33;11.80;58.40
50758;DHT22;36732;47.980;11.652;2023-04-01T09:01:40;12.00;57.60
50758;DHT22;36732;47.980;11.652;2023-04-01T09:04:32;12.00;57.50
50758;DHT22;36732;47.980;11.652;2023-04-01T09:10:24;12.10;57.60
50758;DHT22;36732;47.980;11.652;2023-04-01T09:28:55;12.20;57.60
50758;DHT22;36732;47.980;11.652;2023-04-01T09:35:20;12.20;57.30
50758;DHT22;36732;47.980;11.652;2023-04-01T09:43:58;12.30;57.50
50758;DHT22;36732;47.980;11.652;2023-04-01T09:46:46;12.40;57.50
50758;DHT22;36732;47.980;11.652;2023-04-01T09:49:24;12.40;57.30
50758;DHT22;36732;47.980;11.652;2023-04-01T10:16:26;12.60;56.50
50758;DHT22;36732;47.980;11.652;2023-04-01T10:22:13;12.70;56.50
50758;DHT22;36732;47.980;11.652;2023-04-01T10:24:56;12.70;56.40
50758;DHT22;36732;47.980;11.652;2023-04-01T10:34:12;12.80;56.20
50758;DHT22;36732;47.980;11.652;2023-04-01T10:36:57;12.70;56.10
50758;DHT22;36732;47.980;11.652;2023-04-01T10:39:54;12.80;56.20
50758;DHT22;36732;47.980;11.652;2023-04-01T10:57:32;12.80;56.00
50758;DHT22;36732;47.980;11.652;2023-04-01T11:13:25;12.80;55.60
50758;DHT22;36732;47.980;11.652;2023-04-01T11:35:29;12.90;56.10
50758;DHT22;36732;47.980;11.652;2023-04-01T11:41:00;12.90;56.10
50758;DHT22;36732;47.980;11.652;2023-04-01T11:46:16;12.90;56.20
50758;DHT22;36732;47.980;11.652;2023-04-01T12:03:27;12.90;57.10
50758;DHT22;36732;47.980;11.652;2023-04-01T12:06:30;12.90;57.40
50758;DHT22;36732;47.980;11.652;2023-04-01T12:13:21;12.90;58.10
50758;DHT22;36732;47.980;11.652;2023-04-01T12:20:48;12.90;58.50
50758;DHT22;36732;47.980;11.652;2023-04-01T12:26:52;12.90;58.80
50758;DHT22;36732;47.980;11.652;2023-04-01T12:29:44;12.90;59.00
50758;DHT22;36732;47.980;11.652;2023-04-01T12:38:36;12.90;59.00
50758;DHT22;36732;47.980;11.652;2023-04-01T12:41:22;12.90;59.10
50758;DHT22;36732;47.980;11.652;2023-04-01T12:55:48;12.80;59.20
50758;DHT22;36732;47.980;11.652;2023-04-01T12:58:43;12.80;59.20
50758;DHT22;36732;47.980;11.652;2023-04-01T13:16:23;12.70;59.20
50758;DHT22;36732;47.980;11.652;2023-04-01T13:19:08;12.80;59.30
50758;DHT22;36732;47.980;11.652;2023-04-01T13:24:49;12.70;59.40
50758;DHT22;36732;47.980;11.652;2023-04-01T13:47:28;12.70;59.60
50758;DHT22;36732;47.980;11.652;2023-04-01T13:59:40;12.60;59.60
50758;DHT22;36732;47.980;11.652;2023-04-01T14:05:53;12.60;59.90
50758;DHT22;36732;47.980;11.652;2023-04-01T14:47:04;12.60;60.90
50758;DHT22;36732;47.980;11.652;2023-04-01T14:49:43;12.60;61.00
50758;DHT22;36732;47.980;11.652;2023-04-01T14:54:46;12.50;61.10
50758;DHT22;36732;47.980;11.652;2023-04-01T14:57:15;12.50;61.10
50758;DHT22;36732;47.980;11.652;2023-04-01T15:00:17;12.50;61.10
50758;DHT22;36732;47.980;11.652;2023-04-01T15:02:57;12.50;61.40
50758;DHT22;36732;47.980;11.652;2023-04-01T15:08:21;12.60;61.50
50758;DHT22;36732;47.980;11.652;2023-04-01T15:11:14;12.60;61.60
50758;DHT22;36732;47.980;11.652;2023-04-01T15:16:27;12.50;61.50
50758;DHT22;36732;47.980;11.652;2023-04-01T15:19:30;12.50;61.70
50758;DHT22;36732;47.980;11.652;2023-04-01T15:25:51;12.50;61.80
50758;DHT22;36732;47.980;11.652;2023-04-01T15:40:20;12.60;60.80
50758;DHT22;36732;47.980;11.652;2023-04-01T15:43:32;12.60;61.00
50758;DHT22;36732;47.980;11.652;2023-04-01T15:49:38;12.60;60.80
50758;DHT22;36732;47.980;11.652;2023-04-01T15:52:19;12.60;61.00
50758;DHT22;36732;47.980;11.652;2023-04-01T15:55:09;12.60;60.90
50758;DHT22;36732;47.980;11.652;2023-04-01T16:09:56;12.60;60.60
50758;DHT22;36732;47.980;11.652;2023-04-01T16:21:24;12.60;60.70
50758;DHT22;36732;47.980;11.652;2023-04-01T16:24:12;12.60;60.60
50758;DHT22;36732;47.980;11.652;2023-04-01T16:26:50;12.60;60.70
50758;DHT22;36732;47.980;11.652;2023-04-01T16:32:22;12.60;60.50
50758;DHT22;36732;47.980;11.652;2023-04-01T16:35:10;12.60;60.30
50758;DHT22;36732;47.980;11.652;2023-04-01T16:38:05;12.60;60.50
50758;DHT22;36732;47.980;11.652;2023-04-01T16:43:49;12.60;60.50
50758;DHT22;36732;47.980;11.652;2023-04-01T16:46:40;12.60;60.20
50758;DHT22;36732;47.980;11.652;2023-04-01T16:52:42;12.60;59.90
50758;DHT22;36732;47.980;11.652;2023-04-01T16:55:12;12.60;59.90
50758;DHT22;36732;47.980;11.652;2023-04-01T16:57:52;12.60;59.50
50758;DHT22;36732;47.980;11.652;2023-04-01T17:00:37;12.60;59.40
50758;DHT22;36732;47.980;11.652;2023-04-01T17:03:13;12.60;59.20
50758;DHT22;36732;47.980;11.652;2023-04-01T17:09:00;12.50;59.00
50758;DHT22;36732;47.980;11.652;2023-04-01T17:17:43;12.50;58.10
50758;DHT22;36732;47.980;11.652;2023-04-01T17:20:19;12.50;58.30
50758;DHT22;36732;47.980;11.652;2023-04-01T17:23:04;12.60;58.80
50758;DHT22;36732;47.980;11.652;2023-04-01T17:25:48;12.50;58.10
50758;DHT22;36732;47.980;11.652;2023-04-01T17:31:12;12.50;57.90
50758;DHT22;36732;47.980;11.652;2023-04-01T17:34:32;12.50;58.20
50758;DHT22;36732;47.980;11.652;2023-04-01T17:43:22;12.50;57.60
50758;DHT22;36732;47.980;11.652;2023-04-01T17:46:10;12.50;57.60
50758;DHT22;36732;47.980;11.652;2023-04-01T18:18:50;12.40;57.70
50758;DHT22;36732;47.980;11.652;2023-04-01T18:24:33;12.40;57.70
50758;DHT22;36732;47.980;11.652;2023-04-01T18:27:19;12.40;57.80
50758;DHT22;36732;47.980;11.652;2023-04-01T18:30:07;12.40;57.90
50758;DHT22;36732;47.980;11.652;2023-04-01T18:40:47;12.40;58.10
50758;DHT22;36732;47.980;11.652;2023-04-01T18:46:16;12.40;58.20
50758;DHT22;36732;47.980;11.652;2023-04-01T18:49:10;12.40;58.00
50758;DHT22;36732;47.980;11.652;2023-04-01T18:57:52;12.40;58.10
50758;DHT22;36732;47.980;11.652;2023-04-01T19:00:44;12.40;58.10
50758;DHT22;36732;47.980;11.652;2023-04-01T19:03:20;12.40;58.20
50758;DHT22;36732;47.980;11.652;2023-04-01T19:05:52;12.30;58.20
50758;DHT22;36732;47.980;11.652;2023-04-01T19:08:38;12.40;58.20
50758;DHT22;36732;47.980;11.652;2023-04-01T19:17:21;12.30;58.90
50758;DHT22;36732;47.980;11.652;2023-04-01T19:23:47;12.30;57.80
50758;DHT22;36732;47.980;11.652;2023-04-01T19:41:00;12.20;57.40
50758;DHT22;36732;47.980;11.652;2023-04-01T19:47:16;12.30;57.80
50758;DHT22;36732;47.980;11.652;2023-04-01T19:52:56;12.20;57.50
50758;DHT22;36732;47.980;11.652;2023-04-01T19:58:31;12.20;57.60
50758;DHT22;36732;47.980;11.652;2023-04-01T20:01:21;12.20;57.60
50758;DHT22;36732;47.980;11.652;2023-04-01T20:04:03;12.20;57.40
50758;DHT22;36732;47.980;11.652;2023-04-01T20:09:28;12.20;57.50
50758;DHT22;36732;47.980;11.652;2023-04-01T20:15:02;12.20;57.20
50758;DHT22;36732;47.980;11.652;2023-04-01T20:17:43;12.10;58.00
50758;DHT22;36732;47.980;11.652;2023-04-01T20:25:24;12.10;57.50
50758;DHT22;36732;47.980;11.652;2023-04-01T20:28:04;12.10;58.30
50758;DHT22;36732;47.980;11.652;2023-04-01T20:36:36;12.10;57.60
50758;DHT22;36732;47.980;11.652;2023-04-01T20:42:22;12.10;57.20
50758;DHT22;36732;47.980;11.652;2023-04-01T20:51:25;12.10;57.00
50758;DHT22;36732;47.980;11.652;2023-04-01T20:59:47;12.10;57.40
50758;DHT22;36732;47.980;11.652;2023-04-01T21:03:06;12.10;57.30
50758;DHT22;36732;47.980;11.652;2023-04-01T21:14:56;12.00;57.20
50758;DHT22;36732;47.980;11.652;2023-04-01T21:32:05;12.00;57.40
50758;DHT22;36732;47.980;11.652;2023-04-01T21:35:24;12.00;57.30
50758;DHT22;36732;47.980;11.652;2023-04-01T21:38:15;12.00;57.40
50758;DHT22;36732;47.980;11.652;2023-04-01T21:49:36;12.00;57.20
50758;DHT22;36732;47.980;11.652;2023-04-01T22:05:22;11.90;57.90
50758;DHT22;36732;47.980;11.652;2023-04-01T22:16:37;11.90;57.40
50758;DHT22;36732;47.980;11.652;2023-04-01T22:19:26;11.90;57.20
50758;DHT22;36732;47.980;11.652;2023-04-01T22:22:01;11.90;56.90
50758;DHT22;36732;47.980;11.652;2023-04-01T22:25:07;12.00;57.10
50758;DHT22;36732;47.980;11.652;2023-04-01T22:28:00;12.00;57.00
50758;DHT22;36732;47.980;11.652;2023-04-01T22:30:50;11.90;57.00
50758;DHT22;36732;47.980;11.652;2023-04-01T22:42:44;11.90;57.20
50758;DHT22;36732;47.980;11.652;2023-04-01T22:48:17;11.90;57.30
50758;DHT22;36732;47.980;11.652;2023-04-01T22:51:13;11.90;57.20
50758;DHT22;36732;47.980;11.652;2023-04-01T22:53:49;11.90;57.20
50758;DHT22;36732;47.980;11.652;2023-04-01T22:56:37;12.00;57.50
50758;DHT22;36732;47.980;11.652;2023-04-01T22:59:13;11.90;57.20
50758;DHT22;36732;47.980;11.652;2023-04-01T23:01:55;11.90;57.20
50758;DHT22;36732;47.980;11.652;2023-04-01T23:04:29;11.90;57.30
50758;DHT22;36732;47.980;11.652;2023-04-01T23:07:05;11.90;57.40
50758;DHT22;36732;47.980;11.652;2023-04-01T23:10:05;11.90;57.10
50758;DHT22;36732;47.980;11.652;2023-04-01T23:12:38;11.90;57.40
50758;DHT22;36732;47.980;11.652;2023-04-01T23:15:12;11.90;57.40
50758;DHT22;36732;47.980;11.652;2023-04-01T23:17:53;11.90;57.30
50758;DHT22;36732;47.980;11.652;2023-04-01T23:20:24;11.90;57.40
50758;DHT22;36732;47.980;11.652;2023-04-01T23:23:01;11.90;57.30
50758;DHT22;36732;47.980;11.652;2023-04-01T23:26:03;11.90;57.30
50758;DHT22;36732;47.980;11.652;2023-04-01T23:28:44;11.90;57.30
50758;DHT22;36732;47.980;11.652;2023-04-01T23:31:38;11.90;57.40
50758;DHT22;36732;47.980;11.652;2023-04-01T23:36:39;11.90;57.40
50758;DHT22;36732;47.980;11.652;2023-04-01T23:39:21;11.90;57.40
50758;DHT22;36732;47.980;11.652;2023-04-01T23:41:53;11.90;57.50
50758;DHT22;36732;47.980;11.652;2023-04-01T23:44:21;11.90;57.60
50758;DHT22;36732;47.980;11.652;2023-04-01T23:46:50;11.90;57.60
50758;DHT22;36732;47.980;11.652;2023-04-01T23:49:33;11.90;57.50
50758;DHT22;36732;47.980;11.652;2023-04-01T23:52:31;11.90;57.60
50758;DHT22;36732;47.980;11.652;2023-04-01T23:55:13;11.90;57.50
50758;DHT22;36732;47.980;11.652;2023-04-01T23:57:42;11.90;57.40
